Time;durP1;ratioP1;P1;durP2;ratioP2;P2;SDS_P1;SDS_P2;PMS_P1;PMS_P2;Temp;Humidity;BMP_temperature;BMP_pressure;BME280_temperature;BME280_humidity;BME280_pressure;Samples;Min_cycle;Max_cycle;Signal;HPM_P1;HPM_P2
2022/06/03 00:02:31;;;;;;;8.63;7.15;;;16.90;90.40;;;;;;5093645;28;20119;-75
2022/06/03 00:05:26;;;;;;;12.38;6.90;;;16.70;91.20;;;;;;5092811;28;20036;-76
2022/06/03 00:08:13;;;;;;;11.65;6.38;;;16.80;91.40;;;;;;5093410;28;20035;-75
2022/06/03 00:11:16;;;;;;;12.88;6.43;;;16.80;91.40;;;;;;5075527;28;20024;-74
2022/06/03 00:14:13;;;;;;;7.75;6.50;;;17.00;91.00;;;;;;5093473;28;20032;-74
2022/06/03 00:16:50;;;;;;;9.63;6.05;;;16.80;91.60;;;;;;5093488;28;20028;-74
2022/06/03 00:19:56;;;;;;;17.30;7.03;;;16.70;91.80;;;;;;5093108;28;20024;-74
2022/06/03 00:22:43;;;;;;;10.07;6.78;;;16.80;92.10;;;;;;5074667;28;20071;-75
2022/06/03 00:25:26;;;;;;;11.18;6.65;;;16.80;92.40;;;;;;5085945;28;20048;-75
2022/06/03 00:28:16;;;;;;;11.38;6.30;;;16.50;93.70;;;;;;5072783;28;20174;-75
2022/06/03 00:31:14;;;;;;;13.35;6.20;;;16.40;94.00;;;;;;5076011;28;20060;-75
2022/06/03 00:34:00;;;;;;;12.85;6.72;;;16.40;94.40;;;;;;5079705;28;20046;-74
2022/06/03 00:36:48;;;;;;;8.35;6.10;;;16.20;95.40;;;;;;5082798;28;20085;-75
2022/06/03 00:39:34;;;;;;;9.23;6.68;;;16.40;94.90;;;;;;5092900;28;20028;-75
2022/06/03 00:42:37;;;;;;;8.10;6.20;;;16.30;95.40;;;;;;5091943;28;20125;-75
2022/06/03 00:45:26;;;;;;;11.05;6.15;;;16.30;95.20;;;;;;5092977;28;20036;-74
2022/06/03 00:48:00;;;;;;;8.35;6.40;;;16.20;96.20;;;;;;5092586;28;20032;-75
2022/06/03 00:50:47;;;;;;;10.60;6.35;;;16.00;97.00;;;;;;5089630;28;20028;-75
2022/06/03 00:53:37;;;;;;;11.18;6.88;;;16.00;97.30;;;;;;5080199;28;20035;-75
2022/06/03 00:56:26;;;;;;;8.70;6.38;;;15.90;98.00;;;;;;5092661;28;20064;-75
2022/06/03 00:59:19;;;;;;;7.82;6.63;;;15.80;98.00;;;;;;5091656;28;20035;-74
2022/06/03 01:02:08;;;;;;;8.40;6.25;;;15.60;99.10;;;;;;5079607;28;20461;-74
2022/06/03 01:05:01;;;;;;;9.65;6.50;;;15.60;99.90;;;;;;5092245;28;20066;-74
2022/06/03 01:07:51;;;;;;;12.15;6.70;;;15.40;99.90;;;;;;5092633;28;20134;-74
2022/06/03 01:10:43;;;;;;;8.25;6.55;;;15.30;99.90;;;;;;5079917;28;20024;-74
2022/06/03 01:13:25;;;;;;;12.32;6.97;;;15.80;99.90;;;;;;5092545;28;20043;-74
2022/06/03 01:15:50;;;;;;;10.25;7.30;;;15.70;99.90;;;;;;5092671;28;20028;-74
2022/06/03 01:19:07;;;;;;;8.90;6.95;;;15.30;99.90;;;;;;5091056;28;20024;-74
2022/06/03 01:21:44;;;;;;;8.52;6.35;;;15.30;99.90;;;;;;5073417;28;20041;-74
2022/06/03 01:24:48;;;;;;;12.07;6.65;;;15.30;99.90;;;;;;5092619;28;20035;-74
2022/06/03 01:28:03;;;;;;;7.63;6.53;;;15.20;99.90;;;;;;5079404;28;20465;-74
2022/06/03 01:30:51;;;;;;;9.20;6.95;;;15.40;99.90;;;;;;5092142;28;20053;-74
2022/06/03 01:33:35;;;;;;;8.60;6.50;;;15.30;99.90;;;;;;5091699;28;20656;-75
2022/06/03 01:36:35;;;;;;;10.18;6.70;;;15.20;99.90;;;;;;5084726;28;20028;-75
2022/06/03 01:39:24;;;;;;;8.75;6.43;;;15.30;99.90;;;;;;5095266;28;20382;-74
2022/06/03 01:42:15;;;;;;;9.80;7.35;;;15.30;99.90;;;;;;5075146;28;20420;-74
2022/06/03 01:45:09;;;;;;;8.60;6.45;;;15.50;99.90;;;;;;5095213;28;20044;-74
2022/06/03 01:48:02;;;;;;;10.25;6.78;;;15.30;99.90;;;;;;5095871;28;20507;-74
2022/06/03 01:51:05;;;;;;;9.30;6.97;;;15.50;99.90;;;;;;5095500;28;20201;-75
2022/06/03 01:53:42;;;;;;;11.68;6.35;;;15.70;99.90;;;;;;5073766;28;20073;-75
2022/06/03 01:56:14;;;;;;;12.52;6.85;;;15.70;99.90;;;;;;5096056;28;20024;-74
2022/06/03 01:59:02;;;;;;;8.40;7.13;;;15.80;99.90;;;;;;5093033;28;20111;-74
2022/06/03 02:01:49;;;;;;;9.98;7.15;;;15.70;99.90;;;;;;5083234;28;20024;-75
2022/06/03 02:04:33;;;;;;;12.00;6.97;;;15.60;99.90;;;;;;5095558;28;20032;-74
2022/06/03 02:07:39;;;;;;;11.77;6.65;;;15.50;99.90;;;;;;5077646;28;20032;-75
2022/06/03 02:10:36;;;;;;;11.13;6.97;;;15.70;99.90;;;;;;5091874;28;20067;-75
2022/06/03 02:13:18;;;;;;;15.52;7.13;;;15.40;99.90;;;;;;5095597;28;20028;-75
2022/06/03 02:15:56;;;;;;;10.80;7.35;;;15.30;99.90;;;;;;5095606;28;20036;-74
2022/06/03 02:18:42;;;;;;;13.93;7.35;;;15.10;99.90;;;;;;5082514;28;20035;-75
2022/06/03 02:21:16;;;;;;;11.27;6.68;;;15.50;99.90;;;;;;5095466;28;20032;-74
2022/06/03 02:24:01;;;;;;;11.40;7.32;;;15.60;99.90;;;;;;5095899;28;20081;-75
2022/06/03 02:26:41;;;;;;;9.25;7.03;;;15.40;99.90;;;;;;5095362;28;20028;-75
2022/06/03 02:32:18;;;;;;;13.98;7.53;;;15.80;99.90;;;;;;5078141;28;20496;-75
2022/06/03 02:35:16;;;;;;;14.75;8.10;;;16.00;99.90;;;;;;5077763;28;20453;-75
2022/06/03 02:38:08;;;;;;;12.25;7.63;;;16.00;99.90;;;;;;5083119;28;20124;-74
2022/06/03 02:41:16;;;;;;;11.38;6.95;;;16.00;99.90;;;;;;5093992;28;20051;-75
2022/06/03 02:44:19;;;;;;;11.93;7.72;;;15.80;99.90;;;;;;5093231;28;20028;-75
2022/06/03 02:46:59;;;;;;;10.52;7.13;;;15.50;99.90;;;;;;5095101;28;20031;-74
2022/06/03 02:50:09;;;;;;;13.90;7.68;;;15.80;99.90;;;;;;5092940;28;20028;-75
2022/06/03 02:52:47;;;;;;;13.80;7.75;;;16.00;99.90;;;;;;5078693;28;20060;-75
2022/06/03 02:55:35;;;;;;;11.55;6.28;;;15.90;99.90;;;;;;5095176;28;20215;-75
2022/06/03 02:58:30;;;;;;;13.88;7.55;;;15.70;99.90;;;;;;5094459;28;20031;-75
2022/06/03 03:01:19;;;;;;;12.30;8.18;;;15.80;99.90;;;;;;5076951;28;20043;-75
2022/06/03 03:04:00;;;;;;;9.85;7.72;;;15.80;99.90;;;;;;5094697;28;20035;-75
2022/06/03 03:06:58;;;;;;;13.00;7.53;;;15.90;99.90;;;;;;5081452;28;20119;-75
2022/06/03 03:09:32;;;;;;;13.90;8.32;;;16.00;99.90;;;;;;5094677;28;20032;-74
2022/06/03 03:12:03;;;;;;;11.38;8.15;;;15.70;99.90;;;;;;5094668;28;20078;-74
2022/06/03 03:14:41;;;;;;;11.43;7.28;;;15.80;99.90;;;;;;5094150;28;20461;-74
2022/06/03 03:17:38;;;;;;;10.82;8.18;;;15.60;99.90;;;;;;5093415;28;20040;-75
2022/06/03 03:20:19;;;;;;;10.02;7.47;;;15.40;99.90;;;;;;5094574;28;20019;-75
2022/06/03 03:23:25;;;;;;;11.80;7.90;;;15.50;99.90;;;;;;5094271;28;20059;-75
2022/06/03 03:26:06;;;;;;;10.25;8.23;;;15.60;99.90;;;;;;5094476;28;20024;-75
2022/06/03 03:28:53;;;;;;;14.68;7.68;;;15.30;99.90;;;;;;5080610;28;20496;-75
2022/06/03 03:31:25;;;;;;;8.80;7.80;;;15.40;99.90;;;;;;5094177;28;20032;-75
2022/06/03 03:34:02;;;;;;;10.90;7.88;;;14.90;99.90;;;;;;5089805;28;20039;-75
2022/06/03 03:36:39;;;;;;;13.98;7.82;;;14.70;99.90;;;;;;5086359;28;20036;-75
2022/06/03 03:39:19;;;;;;;16.17;8.95;;;14.90;99.90;;;;;;5095666;28;20063;-74
2022/06/03 03:42:13;;;;;;;12.07;8.60;;;15.00;99.90;;;;;;5094051;28;20031;-75
2022/06/03 03:44:48;;;;;;;9.80;7.80;;;15.20;99.90;;;;;;5083423;28;20035;-75
2022/06/03 03:47:32;;;;;;;15.68;8.40;;;15.40;99.90;;;;;;5093806;28;20488;-74
2022/06/03 03:50:16;;;;;;;12.68;8.55;;;15.40;99.90;;;;;;5091571;28;20039;-75
2022/06/03 03:53:03;;;;;;;12.88;7.80;;;15.50;99.90;;;;;;5093946;28;20023;-75
2022/06/03 03:55:58;;;;;;;15.27;8.38;;;15.00;99.90;;;;;;5091851;28;20040;-75
2022/06/03 03:58:39;;;;;;;10.48;7.95;;;14.70;99.90;;;;;;5093592;28;20039;-75
2022/06/03 04:01:26;;;;;;;11.15;8.40;;;14.60;99.90;;;;;;5093703;28;20480;-75
2022/06/03 04:03:55;;;;;;;10.98;7.78;;;14.80;99.90;;;;;;5093177;28;20077;-75
2022/06/03 04:06:45;;;;;;;15.68;7.75;;;15.10;99.90;;;;;;5078221;28;20085;-75
2022/06/03 04:09:23;;;;;;;14.30;8.90;;;15.20;99.90;;;;;;5092007;28;20587;-75
2022/06/03 04:11:55;;;;;;;16.90;7.90;;;15.30;99.90;;;;;;5091960;28;20445;-75
2022/06/03 04:14:24;;;;;;;14.70;7.97;;;15.30;99.90;;;;;;5093278;28;20036;-75
2022/06/03 04:17:28;;;;;;;10.55;7.82;;;15.10;99.90;;;;;;5092188;28;20081;-75
2022/06/03 04:20:15;;;;;;;12.45;8.25;;;15.10;99.90;;;;;;5093142;28;20150;-74
2022/06/03 04:23:28;;;;;;;11.95;7.45;;;15.00;99.90;;;;;;5093236;28;20114;-74
2022/06/03 04:26:07;;;;;;;;;;;15.10;99.90;;;;;;5086124;28;20036;-74
2022/06/03 04:28:53;;;;;;;13.60;8.82;;;15.20;99.90;;;;;;5092977;28;20425;-74
2022/06/03 04:31:34;;;;;;;10.43;7.85;;;15.20;99.90;;;;;;5092970;28;20116;-74
2022/06/03 04:34:11;;;;;;;10.82;7.40;;;15.20;99.90;;;;;;5087133;28;20038;-75
2022/06/03 04:36:37;;;;;;;10.73;7.78;;;15.00;99.90;;;;;;5086556;28;20090;-75
2022/06/03 04:39:50;;;;;;;10.98;7.70;;;15.00;99.90;;;;;;5093063;28;20023;-75
2022/06/03 04:42:25;;;;;;;13.90;8.13;;;14.90;99.90;;;;;;5092797;28;20028;-75
2022/06/03 04:45:28;;;;;;;11.00;7.75;;;15.10;99.90;;;;;;5091743;28;20523;-74
2022/06/03 04:48:19;;;;;;;8.55;7.55;;;15.20;99.90;;;;;;5081036;28;20170;-75
2022/06/03 04:51:23;;;;;;;13.82;8.32;;;15.10;99.90;;;;;;5091970;28;20020;-75
2022/06/03 04:54:03;;;;;;;10.85;7.95;;;15.20;99.90;;;;;;5092709;28;20067;-75
2022/06/03 04:56:38;;;;;;;10.73;7.90;;;15.20;99.90;;;;;;5092808;28;20028;-74
2022/06/03 04:59:22;;;;;;;16.98;7.95;;;15.40;99.90;;;;;;5091415;28;20495;-75
2022/06/03 05:02:25;;;;;;;13.40;7.88;;;15.40;99.90;;;;;;5092661;28;20065;-75
2022/06/03 05:05:12;;;;;;;10.45;7.68;;;15.40;99.90;;;;;;5089577;28;20040;-74
2022/06/03 05:07:47;;;;;;;12.60;7.95;;;15.30;99.90;;;;;;5092303;28;20128;-75
2022/06/03 05:10:47;;;;;;;10.93;8.20;;;15.20;99.90;;;;;;5092409;28;20058;-74
2022/06/03 05:13:52;;;;;;;11.02;8.07;;;15.00;99.90;;;;;;5057725;28;20455;-75
2022/06/03 05:16:28;;;;;;;11.52;8.27;;;15.10;99.90;;;;;;5090492;28;20016;-74
2022/06/03 05:18:54;;;;;;;15.15;8.65;;;15.10;99.90;;;;;;5091451;28;20114;-74
2022/06/03 05:21:41;;;;;;;13.10;7.95;;;15.30;99.90;;;;;;5077132;28;20036;-74
2022/06/03 05:24:23;;;;;;;12.82;8.40;;;15.50;99.90;;;;;;5086086;28;20037;-74
2022/06/03 05:27:25;;;;;;;12.02;7.55;;;15.50;99.90;;;;;;5078068;28;20051;-74
2022/06/03 05:30:12;;;;;;;12.50;8.07;;;15.60;99.90;;;;;;5066653;28;20060;-75
2022/06/03 05:32:53;;;;;;;11.35;7.43;;;15.40;99.90;;;;;;5082543;28;20370;-75
2022/06/03 05:35:37;;;;;;;12.05;8.05;;;15.50;99.90;;;;;;5097945;28;20142;-74
2022/06/03 05:38:09;;;;;;;17.85;7.95;;;15.70;99.90;;;;;;5086700;28;20020;-74
2022/06/03 05:40:49;;;;;;;14.27;8.32;;;15.50;99.90;;;;;;5097404;28;20057;-75
2022/06/03 05:43:21;;;;;;;15.52;8.02;;;15.70;99.90;;;;;;5093996;28;20028;-74
2022/06/03 05:46:15;;;;;;;14.63;8.77;;;15.50;99.90;;;;;;5105739;28;20035;-75
2022/06/03 05:48:50;;;;;;;13.98;8.82;;;15.80;99.90;;;;;;5103513;28;20044;-73
2022/06/03 05:51:25;;;;;;;13.45;8.50;;;16.00;99.90;;;;;;5097924;28;20121;-73
2022/06/03 05:54:29;;;;;;;14.52;8.10;;;16.30;99.90;;;;;;5094601;28;20036;-73
2022/06/03 05:57:33;;;;;;;11.88;8.45;;;16.70;99.90;;;;;;5089586;28;20028;-75
2022/06/03 06:00:22;;;;;;;12.20;8.27;;;16.80;99.90;;;;;;5091021;28;20123;-74
2022/06/03 06:03:07;;;;;;;12.13;8.15;;;16.80;99.90;;;;;;5091576;28;20051;-74
2022/06/03 06:05:42;;;;;;;15.80;8.63;;;17.00;99.90;;;;;;5091280;28;20032;-75
2022/06/03 06:08:19;;;;;;;12.27;8.75;;;17.20;99.90;;;;;;5071032;28;20055;-72
2022/06/03 06:10:51;;;;;;;13.20;8.05;;;17.30;99.90;;;;;;5084760;28;20089;-72
2022/06/03 06:13:20;;;;;;;13.38;7.70;;;17.20;99.90;;;;;;5081542;28;20017;-74
2022/06/03 06:16:00;;;;;;;14.23;8.35;;;17.10;99.90;;;;;;5083190;28;20020;-74
2022/06/03 06:18:56;;;;;;;17.67;8.45;;;16.90;99.90;;;;;;5075851;28;20040;-75
2022/06/03 06:21:42;;;;;;;14.85;8.63;;;16.70;99.90;;;;;;5078193;28;20099;-74
2022/06/03 06:24:15;;;;;;;12.73;8.55;;;17.00;99.90;;;;;;5086149;28;20071;-75
2022/06/03 06:26:44;;;;;;;13.73;8.15;;;17.10;99.90;;;;;;5077756;28;20036;-75
2022/06/03 06:29:38;;;;;;;16.20;9.05;;;17.30;99.90;;;;;;5084230;28;20024;-74
2022/06/03 06:32:31;;;;;;;13.00;7.65;;;17.40;99.90;;;;;;5083409;28;20031;-74
2022/06/03 06:35:14;;;;;;;18.52;7.75;;;17.30;99.90;;;;;;5079360;28;20032;-74
2022/06/03 06:38:01;;;;;;;14.68;8.57;;;17.20;99.90;;;;;;5086718;28;20440;-74
2022/06/03 06:40:37;;;;;;;16.20;7.80;;;17.40;99.90;;;;;;5103700;28;20039;-74
2022/06/03 06:43:48;;;;;;;20.48;7.45;;;17.60;99.90;;;;;;5099846;28;20028;-74
2022/06/03 06:46:35;;;;;;;9.98;6.93;;;17.40;99.90;;;;;;5082520;28;20088;-74
2022/06/03 06:49:22;;;;;;;11.05;7.00;;;17.60;99.90;;;;;;5104900;28;20500;-74
2022/06/03 06:51:56;;;;;;;21.73;7.18;;;17.90;99.90;;;;;;5090672;28;20035;-74
2022/06/03 06:54:28;;;;;;;23.23;7.40;;;18.20;99.90;;;;;;5099569;28;20028;-74
2022/06/03 06:57:16;;;;;;;17.67;7.68;;;18.20;99.90;;;;;;5080032;28;20740;-74
2022/06/03 06:59:49;;;;;;;26.58;7.60;;;18.50;99.80;;;;;;5083070;28;20077;-74
2022/06/03 07:02:45;;;;;;;10.15;7.00;;;18.40;99.40;;;;;;5079799;28;20142;-77
2022/06/03 07:05:48;;;;;;;17.08;7.15;;;18.50;99.80;;;;;;5070755;28;21402;-75
2022/06/03 07:08:40;;;;;;;14.23;6.57;;;18.10;99.90;;;;;;5075168;28;20469;-74
2022/06/03 07:11:14;;;;;;;10.43;6.50;;;18.20;99.90;;;;;;5089821;28;20475;-74
2022/06/03 07:13:48;;;;;;;11.00;6.88;;;18.20;99.90;;;;;;5079549;28;20030;-75
2022/06/03 07:19:47;;;;;;;14.57;6.10;;;18.50;99.90;;;;;;5074457;28;20027;-74
2022/06/03 07:21:59;;;;;;;15.07;6.63;;;18.50;99.60;;;;;;5087577;28;20097;-74
2022/06/03 07:24:49;;;;;;;12.52;5.80;;;18.40;99.90;;;;;;5082908;28;20016;-74
2022/06/03 07:27:46;;;;;;;16.40;5.97;;;18.70;99.90;;;;;;5078630;28;20108;-75
2022/06/03 07:30:23;;;;;;;9.75;6.00;;;19.10;99.10;;;;;;5077545;28;20469;-74
2022/06/03 07:33:04;;;;;;;7.95;5.55;;;19.40;98.80;;;;;;5090811;28;20036;-74
2022/06/03 07:35:38;;;;;;;8.10;5.35;;;19.70;98.20;;;;;;5081843;28;20024;-75
2022/06/03 07:38:15;;;;;;;12.35;5.65;;;19.90;97.20;;;;;;5110292;28;20027;-74
2022/06/03 07:40:47;;;;;;;12.25;5.55;;;19.70;97.50;;;;;;5092567;28;20034;-75
2022/06/03 07:43:59;;;;;;;9.82;5.97;;;19.70;97.70;;;;;;5094139;28;20032;-72
2022/06/03 07:46:52;;;;;;;6.63;4.97;;;20.10;97.50;;;;;;5093027;28;20123;-75
2022/06/03 07:49:21;;;;;;;11.32;5.10;;;20.30;96.90;;;;;;5092792;28;20055;-75
2022/06/03 07:51:52;;;;;;;11.90;5.20;;;20.40;96.60;;;;;;5094142;28;20028;-75
2022/06/03 07:54:23;;;;;;;10.30;4.95;;;20.50;96.80;;;;;;5093720;28;20070;-75
2022/06/03 07:56:49;;;;;;;8.13;4.97;;;20.30;96.80;;;;;;5094044;28;20484;-75
2022/06/03 07:59:19;;;;;;;11.30;4.72;;;20.30;96.70;;;;;;5093528;28;20278;-75
2022/06/03 08:01:59;;;;;;;16.10;4.25;;;20.40;96.80;;;;;;5093888;28;20111;-75
2022/06/03 08:04:34;;;;;;;16.30;5.55;;;20.70;96.30;;;;;;5092974;28;20537;-75
2022/06/03 08:12:37;;;;;;;14.15;4.43;;;20.90;95.20;;;;;;5072466;28;20488;-75
2022/06/03 08:15:20;;;;;;;7.70;4.05;;;21.10;95.50;;;;;;5071035;28;20024;-73
2022/06/03 08:17:49;;;;;;;15.20;4.72;;;21.30;94.90;;;;;;5072799;28;20093;-73
2022/06/03 08:20:18;;;;;;;8.30;3.83;;;21.60;94.90;;;;;;5071836;28;20024;-73
2022/06/03 08:22:45;;;;;;;5.88;3.47;;;21.60;95.50;;;;;;5072987;28;20103;-73
2022/06/03 08:25:15;;;;;;;9.02;3.95;;;21.90;94.70;;;;;;5072870;28;20082;-73
2022/06/03 08:27:42;;;;;;;5.80;4.05;;;21.70;94.20;;;;;;5072915;28;20135;-75
2022/06/03 08:30:12;;;;;;;10.00;3.97;;;21.70;94.70;;;;;;5072821;28;20465;-72
2022/06/03 08:32:42;;;;;;;10.50;4.68;;;22.00;94.40;;;;;;5072809;28;20091;-73
2022/06/03 08:35:15;;;;;;;10.20;3.75;;;22.10;93.70;;;;;;5073811;28;20377;-73
2022/06/03 08:37:49;;;;;;;8.50;3.33;;;22.40;93.50;;;;;;5092973;28;20496;-73
2022/06/03 08:40:39;;;;;;;10.05;3.10;;;22.50;93.40;;;;;;5091926;28;20020;-72
2022/06/03 08:43:26;;;;;;;9.57;3.42;;;22.40;93.50;;;;;;5091598;28;20032;-73
2022/06/03 08:45:55;;;;;;;24.08;3.50;;;22.60;93.90;;;;;;5092939;28;20533;-73
2022/06/03 08:48:25;;;;;;;9.70;3.38;;;22.90;93.10;;;;;;5091498;28;20561;-73
2022/06/03 08:50:59;;;;;;;8.80;3.00;;;22.80;93.60;;;;;;5092890;28;20492;-73
2022/06/03 08:53:44;;;;;;;11.50;3.58;;;22.80;93.00;;;;;;5093027;28;20027;-76
2022/06/03 08:56:23;;;;;;;8.18;3.40;;;22.90;93.30;;;;;;5093023;28;20024;-73
2022/06/03 08:59:03;;;;;;;7.60;3.13;;;23.10;93.50;;;;;;5093803;28;20056;-74
2022/06/03 09:01:38;;;;;;;5.70;3.03;;;22.90;92.80;;;;;;5092501;28;20043;-73
2022/06/03 09:04:24;;;;;;;10.00;3.28;;;23.10;92.80;;;;;;5092586;28;20051;-73
2022/06/03 09:07:02;;;;;;;4.50;3.45;;;23.30;92.50;;;;;;5092621;28;20040;-73
2022/06/03 09:09:46;;;;;;;13.15;3.75;;;23.30;92.80;;;;;;5092826;28;20024;-73
2022/06/03 09:12:36;;;;;;;6.63;3.33;;;23.80;91.80;;;;;;5092807;28;20043;-73
2022/06/03 09:15:21;;;;;;;6.88;3.38;;;23.80;91.40;;;;;;5092358;28;20021;-73
2022/06/03 09:18:02;;;;;;;5.78;3.00;;;23.90;90.80;;;;;;5091399;28;20032;-73
2022/06/03 09:20:37;;;;;;;5.32;2.88;;;23.50;91.50;;;;;;5092813;28;20032;-74
2022/06/03 09:23:12;;;;;;;14.50;2.92;;;23.60;91.20;;;;;;5093397;28;20020;-73
2022/06/03 09:25:45;;;;;;;6.13;3.00;;;24.00;91.00;;;;;;5092919;28;20024;-73
2022/06/03 09:28:15;;;;;;;14.43;3.00;;;24.10;91.60;;;;;;5092547;28;20046;-73
2022/06/03 09:30:45;;;;;;;13.02;2.55;;;24.10;90.60;;;;;;5092414;28;20043;-73
2022/06/03 09:33:15;;;;;;;5.88;2.22;;;24.20;90.70;;;;;;5093468;28;20468;-73
2022/06/03 09:35:44;;;;;;;16.58;3.13;;;24.30;91.20;;;;;;5076774;28;20481;-73
2022/06/03 09:38:12;;;;;;;8.02;2.72;;;24.40;89.10;;;;;;5093096;28;20024;-73
2022/06/03 09:40:43;;;;;;;8.98;2.58;;;24.90;90.20;;;;;;5091607;28;20012;-73
2022/06/03 09:43:14;;;;;;;11.65;2.22;;;24.90;89.60;;;;;;5091337;28;20028;-73
2022/06/03 09:45:45;;;;;;;5.57;2.22;;;24.80;89.70;;;;;;5092105;28;20411;-73
2022/06/03 09:48:12;;;;;;;5.10;2.50;;;25.10;88.70;;;;;;5092551;28;20044;-73
2022/06/03 09:50:38;;;;;;;6.70;2.30;;;25.00;88.40;;;;;;5091158;28;20020;-73
2022/06/03 09:53:08;;;;;;;4.60;2.10;;;25.00;89.70;;;;;;5092345;28;20483;-73
2022/06/03 09:55:43;;;;;;;8.50;2.03;;;25.20;86.80;;;;;;5094882;28;20020;-73
2022/06/03 09:58:17;;;;;;;14.93;2.78;;;25.50;86.30;;;;;;5095157;28;20058;-73
2022/06/03 10:00:47;;;;;;;7.47;1.90;;;25.40;86.30;;;;;;5095477;28;20507;-75
2022/06/03 10:03:14;;;;;;;5.65;2.08;;;25.60;83.70;;;;;;5095939;28;20039;-73
2022/06/03 10:05:42;;;;;;;2.97;1.55;;;25.80;84.30;;;;;;5094455;28;20027;-73
2022/06/03 10:08:10;;;;;;;3.38;1.70;;;25.80;84.00;;;;;;5095914;28;20038;-74
2022/06/03 10:13:21;;;;;;;3.67;1.90;;;25.90;85.10;;;;;;5083053;28;20028;-73
2022/06/03 10:15:53;;;;;;;2.10;1.33;;;26.00;83.10;;;;;;5095785;28;20016;-73
2022/06/03 10:18:34;;;;;;;4.03;1.48;;;26.00;82.90;;;;;;5095754;28;20388;-73
2022/06/03 10:21:06;;;;;;;3.05;1.17;;;26.10;80.70;;;;;;5094294;28;20024;-74
2022/06/03 10:23:40;;;;;;;8.98;1.77;;;26.10;80.60;;;;;;5095721;28;20529;-74
2022/06/03 10:26:07;;;;;;;3.10;1.35;;;26.40;80.00;;;;;;5095681;28;20389;-73
2022/06/03 10:28:35;;;;;;;6.35;1.30;;;26.30;77.70;;;;;;5095052;28;20089;-73
2022/06/03 10:31:06;;;;;;;8.23;1.30;;;26.00;76.60;;;;;;5095621;28;20127;-73
2022/06/03 10:33:34;;;;;;;6.90;1.75;;;25.90;78.40;;;;;;5093519;28;20422;-73
2022/06/03 10:36:02;;;;;;;7.95;1.52;;;26.30;79.20;;;;;;5082134;28;20433;-75
2022/06/03 10:38:32;;;;;;;2.28;1.23;;;26.50;78.10;;;;;;5092120;28;20036;-74
2022/06/03 10:41:05;;;;;;;4.80;1.30;;;26.40;78.90;;;;;;5074579;28;20048;-74
2022/06/03 10:43:33;;;;;;;5.07;1.30;;;26.30;78.10;;;;;;5074307;28;20483;-73
2022/06/03 10:46:15;;;;;;;9.38;1.60;;;26.40;78.10;;;;;;5074816;28;20051;-72
2022/06/03 10:48:42;;;;;;;7.00;1.77;;;26.30;78.20;;;;;;5073215;28;20119;-73
2022/06/03 11:02:36;;;;;;;5.63;1.42;;;27.50;75.50;;;;;;5074042;28;20029;-74
2022/06/03 11:05:28;;;;;;;2.78;1.33;;;27.50;77.30;;;;;;5083630;28;20511;-74
2022/06/03 11:08:13;;;;;;;5.63;1.48;;;28.00;76.00;;;;;;5073952;28;20044;-74
2022/06/03 11:10:51;;;;;;;5.55;1.35;;;28.10;74.80;;;;;;5074348;28;20039;-74
2022/06/03 11:13:39;;;;;;;6.93;1.42;;;27.90;74.00;;;;;;5073550;28;20040;-73
2022/06/03 11:16:20;;;;;;;2.35;1.58;;;27.90;76.10;;;;;;5072914;28;20052;-74
2022/06/03 11:18:46;;;;;;;5.25;1.20;;;27.90;74.60;;;;;;5074041;28;20484;-74
2022/06/03 11:21:28;;;;;;;4.20;1.00;;;28.20;73.80;;;;;;5074251;28;20028;-74
2022/06/03 11:23:57;;;;;;;2.00;0.90;;;28.10;71.20;;;;;;5074111;28;20031;-74
2022/06/03 11:26:28;;;;;;;2.55;0.80;;;28.00;71.80;;;;;;5073781;28;20124;-74
2022/06/03 11:29:02;;;;;;;6.78;1.45;;;28.10;69.40;;;;;;5073739;28;20024;-74
2022/06/03 11:31:37;;;;;;;3.45;1.05;;;28.00;70.00;;;;;;5074091;28;20512;-74
2022/06/03 11:34:22;;;;;;;2.47;1.35;;;28.60;72.80;;;;;;5073952;28;20504;-75
2022/06/03 11:36:58;;;;;;;4.60;1.20;;;29.40;70.70;;;;;;5089034;28;20087;-74
2022/06/03 11:39:39;;;;;;;7.28;1.20;;;29.20;69.00;;;;;;5094042;28;20063;-74
2022/06/03 11:42:08;;;;;;;2.80;1.10;;;28.70;70.60;;;;;;5079183;28;20033;-74
2022/06/03 11:44:47;;;;;;;1.85;0.95;;;28.60;70.60;;;;;;5073738;28;20020;-73
2022/06/03 11:47:34;;;;;;;5.00;1.20;;;29.00;69.70;;;;;;5073137;28;20041;-73
2022/06/03 11:50:00;;;;;;;4.22;1.27;;;28.80;67.50;;;;;;5073589;28;20376;-75
2022/06/03 11:52:26;;;;;;;4.80;0.93;;;28.70;67.20;;;;;;5073250;28;20036;-74
2022/06/03 11:54:54;;;;;;;5.85;1.15;;;27.90;66.90;;;;;;5073013;28;20484;-75
2022/06/03 11:57:20;;;;;;;2.33;1.00;;;27.80;67.80;;;;;;5071708;28;20384;-74
2022/06/03 11:59:53;;;;;;;4.13;1.00;;;28.00;67.90;;;;;;5073120;28;20063;-75
2022/06/03 12:02:32;;;;;;;7.43;1.02;;;28.00;67.30;;;;;;5073120;28;20064;-74
2022/06/03 12:05:00;;;;;;;7.22;1.30;;;28.30;66.80;;;;;;5082680;28;20040;-74
2022/06/03 12:07:33;;;;;;;3.63;0.80;;;28.80;68.30;;;;;;5073099;28;20028;-74
2022/06/03 12:10:11;;;;;;;2.47;1.10;;;29.20;66.90;;;;;;5073142;28;20025;-74
2022/06/03 12:15:44;;;;;;;3.17;1.33;;;29.00;65.40;;;;;;5071813;28;20032;-75
2022/06/03 12:18:10;;;;;;;2.88;1.33;;;28.90;65.70;;;;;;5072156;28;20025;-74
2022/06/03 12:20:48;;;;;;;1.27;0.90;;;29.20;67.70;;;;;;5073101;28;20031;-74
2022/06/03 12:23:14;;;;;;;7.40;1.58;;;29.10;66.40;;;;;;5072873;28;20024;-75
2022/06/03 12:25:40;;;;;;;1.92;1.10;;;29.20;66.60;;;;;;5072831;28;20032;-75
2022/06/03 12:28:15;;;;;;;4.22;1.20;;;29.20;64.50;;;;;;5072698;28;20032;-75
2022/06/03 12:30:47;;;;;;;3.53;1.60;;;28.50;64.00;;;;;;5072889;28;20540;-75
2022/06/03 12:33:31;;;;;;;5.95;1.10;;;28.80;67.20;;;;;;5072649;28;20036;-75
2022/06/03 12:36:06;;;;;;;4.07;1.20;;;29.10;67.70;;;;;;5080778;28;20024;-74
2022/06/03 12:38:34;;;;;;;5.50;1.20;;;29.30;66.60;;;;;;5093243;28;20028;-75
2022/06/03 12:41:05;;;;;;;2.45;0.90;;;29.60;67.50;;;;;;5092516;28;20039;-74
2022/06/03 12:43:46;;;;;;;1.58;1.00;;;30.20;66.30;;;;;;5093246;28;20024;-75
2022/06/03 12:46:42;;;;;;;5.88;1.20;;;30.50;64.40;;;;;;5081425;28;20381;-75
2022/06/03 12:49:36;;;;;;;6.93;1.35;;;30.20;66.30;;;;;;5091389;28;20480;-75
2022/06/03 12:52:08;;;;;;;7.80;1.30;;;30.80;63.70;;;;;;5093126;28;20032;-75
2022/06/03 12:54:49;;;;;;;3.38;1.05;;;30.70;63.00;;;;;;5094374;28;20032;-75
2022/06/03 12:57:25;;;;;;;7.45;1.30;;;30.70;64.50;;;;;;5094242;28;20024;-75
2022/06/03 13:00:03;;;;;;;3.85;1.35;;;30.80;64.60;;;;;;5093997;28;20032;-75
2022/06/03 13:02:35;;;;;;;1.95;1.27;;;31.40;64.50;;;;;;5092068;28;20100;-75
2022/06/03 13:05:23;;;;;;;6.32;1.30;;;31.50;63.80;;;;;;5091950;28;20040;-75
2022/06/03 13:07:59;;;;;;;5.13;1.55;;;31.70;64.60;;;;;;5093444;28;20460;-75
2022/06/03 13:10:28;;;;;;;3.05;1.27;;;30.90;62.80;;;;;;5086323;28;20031;-75
2022/06/03 13:12:58;;;;;;;36.08;5.20;;;31.00;62.90;;;;;;5081289;28;20392;-75
2022/06/03 13:15:27;;;;;;;8.27;1.40;;;31.30;64.30;;;;;;5092706;28;20128;-76
2022/06/03 13:20:46;;;;;;;6.68;1.30;;;30.30;62.70;;;;;;5092784;28;20028;-75
2022/06/03 13:23:34;;;;;;;2.10;1.33;;;29.60;62.10;;;;;;5093812;28;20048;-75
2022/06/03 13:26:27;;;;;;;7.30;1.60;;;29.90;64.80;;;;;;5094053;28;20036;-75
2022/06/03 13:29:06;;;;;;;6.97;1.58;;;30.50;62.30;;;;;;5085435;28;20036;-75
2022/06/03 13:31:41;;;;;;;2.85;1.40;;;30.60;63.00;;;;;;5099649;28;20020;-75
2022/06/03 13:34:10;;;;;;;6.63;1.25;;;30.70;63.60;;;;;;5090923;28;20028;-75
2022/06/03 13:37:16;;;;;;;6.00;1.38;;;30.80;64.50;;;;;;5089937;28;20116;-75
2022/06/03 13:39:41;;;;;;;7.45;1.65;;;31.40;63.50;;;;;;5096569;28;20540;-75
2022/06/03 13:45:01;;;;;;;2.50;1.75;;;30.90;63.50;;;;;;5097060;28;20020;-75
2022/06/03 13:47:29;;;;;;;12.30;1.85;;;30.90;64.30;;;;;;5096109;28;20027;-75
2022/06/03 13:50:45;;;;;;;42.53;3.38;;;31.40;64.80;;;;;;5096050;28;20090;-75
2022/06/03 13:53:13;;;;;;;7.80;1.85;;;31.50;62.30;;;;;;5084873;28;20120;-74
2022/06/03 13:55:39;;;;;;;3.22;1.73;;;31.60;63.50;;;;;;5096430;28;20485;-75
2022/06/03 13:58:07;;;;;;;4.55;2.15;;;31.60;63.10;;;;;;5096700;28;20061;-75
2022/06/03 14:00:38;;;;;;;11.50;2.13;;;31.50;62.20;;;;;;5096672;28;20028;-75
2022/06/03 14:03:04;;;;;;;4.63;1.40;;;32.20;62.90;;;;;;5096369;28;20024;-75
2022/06/03 14:05:40;;;;;;;4.82;2.40;;;32.70;62.50;;;;;;5096135;28;20028;-76
2022/06/03 14:08:21;;;;;;;6.75;2.13;;;32.30;60.80;;;;;;5096291;28;20465;-75
2022/06/03 14:11:07;;;;;;;2.40;1.95;;;33.20;61.80;;;;;;5094921;28;20058;-75
2022/06/03 14:13:51;;;;;;;4.90;2.30;;;33.80;59.90;;;;;;5096123;28;20027;-76
2022/06/03 14:16:23;;;;;;;4.43;2.38;;;32.70;59.40;;;;;;5096142;28;20032;-75
2022/06/03 14:19:22;;;;;;;6.57;2.20;;;32.70;59.80;;;;;;5095969;28;20032;-76
2022/06/03 14:21:51;;;;;;;4.30;3.13;;;33.00;60.30;;;;;;5094152;28;20024;-75
2022/06/03 14:24:24;;;;;;;2.28;1.70;;;32.00;59.20;;;;;;5095958;28;20036;-75
2022/06/03 14:27:11;;;;;;;3.55;2.55;;;32.50;62.20;;;;;;5095997;28;20077;-76
2022/06/03 14:29:41;;;;;;;7.35;2.10;;;33.30;59.10;;;;;;5097496;28;20160;-75